This is the latest recevied weather packets stored in our database for station/object OK1PMP-6. If no packets are shown the sender has not sent any weather packets the latest 10 day(s).
| Time | Temp. | Humidity | Pressure | Rain* | Wind** | Luminosity | Snow |
|---|---|---|---|---|---|---|---|
| 1778159694 | 17.22° C | 59% | 1015.6 hPa | 0 mm | - | 215 W/m² | - |
| 1778158795 | 17.22° C | 56% | 1015.7 hPa | 0 mm | - | 272 W/m² | - |
| 1778157896 | 17.22° C | 59% | 1015.6 hPa | 0 mm | - | 219 W/m² | - |
| 1778157002 | 17.78° C | 60% | 1015.2 hPa | 0 mm | - | 187 W/m² | - |
| 1778156096 | 17.22° C | 61% | 1015.2 hPa | 0 mm | - | 268 W/m² | - |
| 1778155194 | 16.67° C | 64% | 1015.1 hPa | 0 mm | - | 130 W/m² | - |
| 1778154295 | 17.78° C | 61% | 1014.9 hPa | 0 mm | - | 145 W/m² | - |
| 1778153395 | 17.78° C | 63% | 1014.8 hPa | 0 mm | - | 302 W/m² | - |
| 1778152494 | 17.78° C | 62% | 1014.9 hPa | 0 mm | - | 247 W/m² | - |
| 1778151596 | 19.44° C | 59% | 1014.8 hPa | 0 mm | - | 211 W/m² | - |
| 1778150702 | 18.89° C | 61% | 1014.7 hPa | 0 mm | - | 541 W/m² | - |
| 1778149796 | 17.78° C | 62% | 1014.9 hPa | 0 mm | - | 816 W/m² | - |
| 1778148895 | 17.22° C | 66% | 1014.7 hPa | 0 mm | - | 421 W/m² | - |
| 1778147997 | 16.67° C | 68% | 1014.6 hPa | 0 mm | - | 299 W/m² | - |
| 1778147096 | 16.67° C | 67% | 1014.7 hPa | 0 mm | - | 301 W/m² | - |
| 1778146195 | 16.67° C | 68% | 1014.3 hPa | 0 mm | - | 310 W/m² | - |
| 1778145295 | 16.11° C | 70% | 1014.2 hPa | 0 mm | - | 228 W/m² | - |
| 1778144401 | 17.22° C | 69% | 1014.1 hPa | 0 mm | - | 204 W/m² | - |
| 1778143495 | 16.11° C | 74% | 1013.9 hPa | 0 mm | - | 766 W/m² | - |
| 1778142595 | 15.56° C | 76% | 1013.9 hPa | 0 mm | - | 168 W/m² | - |
| 1778141695 | 15.56° C | 76% | 1013.8 hPa | 0 mm | - | 300 W/m² | - |
| 1778139896 | 15° C | 83% | 1013.8 hPa | 0 mm | - | 224 W/m² | - |
| 1778138995 | 14.44° C | 82% | 1013.5 hPa | 0 mm | - | 197 W/m² | - |
| 1778138090 | 13.89° C | 85% | 1013.6 hPa | 0 mm | - | 498 W/m² | - |
| 1778137191 | 13.33° C | 86% | 1013.3 hPa | 0 mm | - | 154 W/m² | - |
* Rain latest hour (hover to see other rain measurements)
** Current wind speed in m/s (hover to see current wind gust speed)